createdAt,value
2022-10-28T00:00:44.721Z,100853.16
2022-10-28T00:05:47.617Z,100856.00
2022-10-28T00:10:50.351Z,100848.84
2022-10-28T00:15:54.312Z,100849.94
2022-10-28T00:21:01.282Z,100852.63
2022-10-28T00:26:13.562Z,100838.47
2022-10-28T00:31:19.886Z,100835.00
2022-10-28T00:36:24.440Z,100830.69
2022-10-28T00:41:29.599Z,100839.88
2022-10-28T00:46:40.747Z,100838.59
2022-10-28T00:51:46.850Z,100827.03
2022-10-28T00:56:54.341Z,100823.56
2022-10-28T01:01:58.751Z,100823.13
2022-10-28T01:07:03.285Z,100799.97
2022-10-28T01:12:18.562Z,100795.00
2022-10-28T01:17:36.735Z,100805.19
2022-10-28T01:22:47.423Z,100805.41
2022-10-28T01:28:06.475Z,100800.22
2022-10-28T01:33:18.873Z,100805.09
2022-10-28T01:38:31.884Z,100815.31
2022-10-28T01:43:43.466Z,100795.97
2022-10-28T01:48:52.306Z,100802.44
2022-10-28T01:53:58.103Z,100800.91
2022-10-28T01:59:02.922Z,100797.66
2022-10-28T02:04:07.098Z,100808.81
2022-10-28T02:09:20.716Z,100805.44
2022-10-28T02:14:39.271Z,100801.34
2022-10-28T02:19:52.964Z,100804.34
2022-10-28T02:25:07.657Z,100804.56
2022-10-28T02:30:16.334Z,100796.91
2022-10-28T02:35:28.077Z,100792.66
2022-10-28T02:40:33.818Z,100783.78
2022-10-28T02:45:41.693Z,100770.72
2022-10-28T02:51:01.656Z,100768.34
2022-10-28T02:56:07.432Z,100766.69
2022-10-28T03:01:10.147Z,100767.00
2022-10-28T03:06:14.263Z,100767.09
2022-10-28T03:11:16.896Z,100767.41
2022-10-28T03:16:19.584Z,100764.06
2022-10-28T03:21:23.721Z,100754.31
2022-10-28T03:26:26.306Z,100755.41
2022-10-28T03:31:29.013Z,100761.00
2022-10-28T03:36:32.959Z,100751.28
2022-10-28T03:41:35.752Z,100747.16
2022-10-28T03:46:38.394Z,100738.41
2022-10-28T03:51:42.406Z,100738.59
2022-10-28T03:56:45.095Z,100731.69
2022-10-28T04:01:47.916Z,100735.44
2022-10-28T04:06:52.066Z,100731.13
2022-10-28T04:11:54.733Z,100733.03
2022-10-28T04:16:57.475Z,100730.56
2022-10-28T04:22:01.556Z,100728.84
2022-10-28T04:27:04.184Z,100725.34
2022-10-28T04:32:06.893Z,100730.00
2022-10-28T04:37:11.110Z,100736.25
2022-10-28T04:42:13.935Z,100734.66
2022-10-28T04:47:17.495Z,100741.09
2022-10-28T04:52:21.780Z,100739.34
2022-10-28T04:57:24.437Z,100735.06
2022-10-28T05:02:27.331Z,100728.00
2022-10-28T05:07:31.481Z,100714.63
2022-10-28T05:12:34.156Z,100706.66
2022-10-28T05:17:36.815Z,100718.38
2022-10-28T05:22:47.084Z,100719.47
2022-10-28T05:27:49.808Z,100716.00
2022-10-28T05:32:55.205Z,100712.41
2022-10-28T05:37:59.609Z,100719.56
2022-10-28T05:43:03.073Z,100696.25
2022-10-28T05:48:06.318Z,100723.31
2022-10-28T05:53:10.318Z,100734.31
2022-10-28T05:58:13.007Z,100729.88
2022-10-28T06:03:15.614Z,100732.63
2022-10-28T06:08:19.581Z,100730.03
2022-10-28T06:13:21.048Z,100740.81
2022-10-28T06:18:24.336Z,100732.94
2022-10-28T06:23:28.348Z,100734.75
2022-10-28T06:28:31.518Z,100758.25
2022-10-28T06:33:34.490Z,100746.63
2022-10-28T06:38:38.456Z,100743.13
2022-10-28T06:43:41.159Z,100741.34
2022-10-28T06:48:45.401Z,100744.97
2022-10-28T06:53:51.234Z,100748.63
2022-10-28T06:58:55.729Z,100752.19
2022-10-28T07:03:58.354Z,100751.31
2022-10-28T07:09:02.609Z,100757.00
2022-10-28T07:14:05.282Z,100760.59
2022-10-28T07:19:07.937Z,100763.47
2022-10-28T07:24:11.979Z,100766.53
2022-10-28T07:29:14.607Z,100775.38
2022-10-28T07:34:17.429Z,100770.44
2022-10-28T07:39:22.138Z,100767.91
2022-10-28T07:44:24.766Z,100787.13
2022-10-28T07:49:27.584Z,100779.50
2022-10-28T07:54:31.918Z,100774.91
2022-10-28T07:59:34.719Z,100771.66
2022-10-28T08:04:37.455Z,100771.19
2022-10-28T08:09:41.601Z,100781.56
2022-10-28T08:14:44.346Z,100762.53
2022-10-28T08:19:46.985Z,100786.28
2022-10-28T08:24:50.914Z,100770.88
2022-10-28T08:29:54.050Z,100756.44
2022-10-28T08:34:56.885Z,100762.72
2022-10-28T08:40:00.916Z,100746.44
2022-10-28T08:45:19.194Z,100739.91
2022-10-28T08:50:25.299Z,100736.00
2022-10-28T08:55:33.217Z,100718.00
2022-10-28T09:00:37.295Z,100716.00
2022-10-28T09:05:41.030Z,100705.91
2022-10-28T09:11:00.961Z,100696.84
2022-10-28T09:16:15.157Z,100696.66
2022-10-28T09:21:25.784Z,100696.34
2022-10-28T09:26:42.990Z,100670.81
2022-10-28T09:31:49.324Z,100679.69
2022-10-28T09:36:56.053Z,100667.94
2022-10-28T09:42:03.795Z,100666.75
2022-10-28T09:47:15.993Z,100658.56
2022-10-28T09:52:23.946Z,100644.88
2022-10-28T09:57:32.167Z,100644.56
2022-10-28T10:02:36.048Z,100627.22
2022-10-28T10:07:45.389Z,100647.63
2022-10-28T10:12:52.513Z,100645.78
2022-10-28T10:17:58.929Z,100642.00
2022-10-28T10:23:01.754Z,100632.06
2022-10-28T10:28:16.712Z,100647.19
2022-10-28T10:33:23.047Z,100649.66
2022-10-28T10:38:27.167Z,100639.97
2022-10-28T10:43:35.591Z,100632.50
2022-10-28T10:48:38.280Z,100641.47
2022-10-28T10:53:41.518Z,100628.22
2022-10-28T10:58:51.606Z,100626.94
2022-10-28T11:03:59.597Z,100622.50
2022-10-28T11:09:04.670Z,100612.03
2022-10-28T11:14:24.284Z,100611.59
2022-10-28T11:19:30.614Z,100599.44
2022-10-28T11:24:49.518Z,100588.53
2022-10-28T11:29:54.393Z,100584.72
2022-10-28T11:35:29.663Z,100574.31
2022-10-28T11:40:44.221Z,100567.69
2022-10-28T11:45:57.443Z,100572.78
2022-10-28T11:51:11.087Z,100562.94
2022-10-28T11:56:27.414Z,100566.94
2022-10-28T12:01:45.647Z,100564.22
2022-10-28T12:07:02.742Z,100563.28
2022-10-28T12:12:18.249Z,100549.78
2022-10-28T12:17:29.960Z,100551.19
2022-10-28T12:22:37.009Z,100549.44
2022-10-28T12:27:45.420Z,100553.06
2022-10-28T12:32:53.540Z,100559.06
2022-10-28T12:38:04.273Z,100550.50
2022-10-28T12:43:15.107Z,100559.69
2022-10-28T12:48:25.226Z,100563.31
2022-10-28T12:53:36.389Z,100569.94
2022-10-28T12:58:46.226Z,100578.91
2022-10-28T13:03:52.591Z,100580.00
2022-10-28T13:09:37.852Z,100573.94
2022-10-28T13:15:02.218Z,100588.97
2022-10-28T13:20:19.642Z,100577.22
2022-10-28T13:25:45.369Z,100576.56
2022-10-28T13:30:57.003Z,100568.91
2022-10-28T13:36:16.165Z,100570.22
2022-10-28T13:41:36.719Z,100568.81
2022-10-28T13:47:16.042Z,100562.66
2022-10-28T13:52:23.024Z,100563.97
2022-10-28T13:57:30.003Z,100565.81
2022-10-28T14:02:38.479Z,100562.16
2022-10-28T14:07:54.451Z,100567.88
2022-10-28T14:13:00.132Z,100571.31
2022-10-28T14:18:16.175Z,100564.53
2022-10-28T14:24:07.765Z,100565.63
2022-10-28T14:29:28.464Z,100562.06
2022-10-28T14:34:43.942Z,100563.78
2022-10-28T14:40:02.893Z,100553.97
2022-10-28T14:45:24.866Z,100557.97
2022-10-28T14:50:35.414Z,100555.28
2022-10-28T14:55:40.437Z,100561.22
2022-10-28T15:00:50.316Z,100564.16
2022-10-28T15:05:53.083Z,100552.16
2022-10-28T15:10:57.161Z,100541.59
2022-10-28T15:16:02.294Z,100544.50
2022-10-28T15:21:12.714Z,100532.97
2022-10-28T15:26:17.667Z,100532.59
2022-10-28T15:31:20.290Z,100543.09
2022-10-28T15:36:25.242Z,100530.03
2022-10-28T15:41:49.234Z,100528.72
2022-10-28T15:46:52.423Z,100525.38
2022-10-28T15:52:21.443Z,100518.03
2022-10-28T15:57:27.694Z,100523.66
2022-10-28T16:02:53.336Z,100514.47
2022-10-28T16:07:56.655Z,100512.28
2022-10-28T16:13:01.500Z,100508.53
2022-10-28T16:18:04.297Z,100510.56
2022-10-28T16:23:12.849Z,100513.06
2022-10-28T16:28:22.456Z,100507.56
2022-10-28T16:33:29.931Z,100497.44
2022-10-28T16:38:33.580Z,100504.53
2022-10-28T16:43:38.154Z,100500.88
2022-10-28T16:48:41.526Z,100514.28
2022-10-28T16:53:47.092Z,100520.41
2022-10-28T16:58:51.324Z,100522.25
2022-10-28T17:03:54.057Z,100519.44
2022-10-28T17:09:02.853Z,100525.69
2022-10-28T17:14:07.930Z,100529.25
2022-10-28T17:19:10.628Z,100529.25
2022-10-28T17:24:13.278Z,100526.78
2022-10-28T17:29:17.294Z,100528.50
2022-10-28T17:34:20.144Z,100528.50
2022-10-28T17:39:26.200Z,100522.25
2022-10-28T17:44:30.602Z,100530.88
2022-10-28T17:49:34.262Z,100532.16
2022-10-28T17:54:36.967Z,100531.63
2022-10-28T17:59:40.973Z,100541.81
2022-10-28T18:04:43.888Z,100541.03
2022-10-28T18:09:46.607Z,100543.94
2022-10-28T18:14:50.567Z,100541.41
2022-10-28T18:19:53.370Z,100545.41
2022-10-28T18:24:56.659Z,100553.81
2022-10-28T18:30:00.663Z,100551.50
2022-10-28T18:35:03.348Z,100555.59
2022-10-28T18:40:07.238Z,100557.97
2022-10-28T18:45:11.797Z,100560.34
2022-10-28T18:50:14.588Z,100555.63
2022-10-28T18:55:17.473Z,100554.50
2022-10-28T19:00:22.169Z,100558.81
2022-10-28T19:05:24.975Z,100557.28
2022-10-28T19:10:27.761Z,100563.09
2022-10-28T19:15:32.080Z,100566.63
2022-10-28T19:20:35.032Z,100567.16
2022-10-28T19:25:37.859Z,100567.56
2022-10-28T19:30:41.927Z,100572.22
2022-10-28T19:35:44.731Z,100571.63
2022-10-28T19:40:47.417Z,100577.91
2022-10-28T19:45:51.622Z,100569.56
2022-10-28T19:50:54.338Z,100583.63
2022-10-28T19:55:58.541Z,100582.41
2022-10-28T20:01:04.949Z,100589.41
2022-10-28T20:06:09.240Z,100588.09
2022-10-28T20:11:14.327Z,100600.63
2022-10-28T20:16:19.021Z,100599.75
2022-10-28T20:21:23.031Z,100614.16
2022-10-28T20:26:28.966Z,100617.16
2022-10-28T20:31:34.038Z,100619.72
2022-10-28T20:36:37.924Z,100628.41
2022-10-28T20:41:41.681Z,100624.97
2022-10-28T20:46:47.836Z,100638.34
2022-10-28T20:51:50.784Z,100634.66
2022-10-28T20:56:53.396Z,100616.72
2022-10-28T21:01:57.552Z,100619.28
2022-10-28T21:07:00.324Z,100619.06
2022-10-28T21:12:02.970Z,100614.13
2022-10-28T21:17:06.945Z,100617.88
2022-10-28T21:22:09.653Z,100628.16
2022-10-28T21:27:12.313Z,100632.00
2022-10-28T21:32:16.290Z,100634.84
2022-10-28T21:37:19.419Z,100646.91
2022-10-28T21:42:22.217Z,100642.47
2022-10-28T21:47:27.239Z,100636.22
2022-10-28T21:52:29.897Z,100643.00
2022-10-28T21:57:32.594Z,100648.97
2022-10-28T22:02:36.663Z,100647.53
2022-10-28T22:07:39.437Z,100648.53
2022-10-28T22:12:42.091Z,100658.63
2022-10-28T22:17:46.052Z,100653.94
2022-10-28T22:22:48.735Z,100666.16
2022-10-28T22:27:51.360Z,100671.13
2022-10-28T22:32:55.716Z,100668.41
2022-10-28T22:37:58.763Z,100682.44
2022-10-28T22:43:01.518Z,100679.63
2022-10-28T22:48:05.717Z,100684.19
2022-10-28T22:53:08.381Z,100676.66
2022-10-28T22:58:11.626Z,100683.16
2022-10-28T23:03:16.045Z,100686.88
2022-10-28T23:08:18.780Z,100684.69
2022-10-28T23:13:21.400Z,100699.69
2022-10-28T23:18:28.515Z,100712.22
2022-10-28T23:23:31.179Z,100704.34
2022-10-28T23:28:34.175Z,100714.81
2022-10-28T23:33:38.171Z,100699.69
2022-10-28T23:38:41.165Z,100699.47
2022-10-28T23:43:43.859Z,100696.75
2022-10-28T23:48:47.843Z,100689.50
2022-10-28T23:53:50.550Z,100678.66
2022-10-28T23:58:53.534Z,100691.47
